Time;durP1;ratioP1;P1;durP2;ratioP2;P2;SDS_P1;SDS_P2;PMS_P1;PMS_P2;Temp;Humidity;BMP_temperature;BMP_pressure;BME280_temperature;BME280_humidity;BME280_pressure;Samples;Min_cycle;Max_cycle;Signal;HPM_P1;HPM_P2
2022/03/07 00:00:05;;;;;;;;;;;5.80;88.60;;;;;;4318656;33;45071;-84
2022/03/07 00:02:32;;;;;;;;;;;5.80;88.50;;;;;;4331926;33;43930;-84
2022/03/07 00:05:00;;;;;;;;;;;5.80;88.00;;;;;;4319013;33;44909;-84
2022/03/07 00:07:27;;;;;;;;;;;5.80;87.90;;;;;;4318606;33;42745;-84
2022/03/07 00:09:54;;;;;;;;;;;5.70;87.80;;;;;;4318930;33;44532;-84
2022/03/07 00:12:22;;;;;;;;;;;5.70;88.10;;;;;;4318831;33;44069;-84
2022/03/07 00:14:49;;;;;;;;;;;5.70;87.90;;;;;;4318948;33;43611;-84
2022/03/07 00:17:16;;;;;;;;;;;5.70;88.40;;;;;;4319018;33;45352;-84
2022/03/07 00:19:43;;;;;;;;;;;5.70;87.90;;;;;;4318389;33;44894;-84
2022/03/07 00:22:10;;;;;;;;;;;5.70;88.50;;;;;;4318486;33;43857;-83
2022/03/07 00:24:37;;;;;;;;;;;5.70;88.90;;;;;;4332076;33;45064;-83
2022/03/07 00:27:04;;;;;;;;;;;5.70;88.50;;;;;;4318949;33;43932;-83
2022/03/07 00:29:32;;;;;;;;;;;5.70;88.90;;;;;;4318359;33;42737;-83
2022/03/07 00:31:59;;;;;;;;;;;5.70;89.10;;;;;;4318309;33;43324;-83
2022/03/07 00:34:26;;;;;;;;;;;5.70;89.10;;;;;;4318247;33;42315;-84
2022/03/07 00:36:53;;;;;;;;;;;5.60;88.20;;;;;;4318779;33;44354;-84
2022/03/07 00:39:20;;;;;;;;;;;5.60;88.60;;;;;;4318240;33;43018;-83
2022/03/07 00:41:47;;;;;;;;;;;5.60;88.70;;;;;;4318148;33;42506;-83
2022/03/07 00:44:14;;;;;;;;;;;5.60;88.50;;;;;;4317954;33;44238;-83
2022/03/07 00:46:41;;;;;;;;;;;5.60;88.90;;;;;;4318545;33;43475;-83
2022/03/07 00:49:10;;;;;;;;;;;5.60;89.20;;;;;;4318279;33;43534;-83
2022/03/07 00:51:37;;;;;;;;;;;5.60;88.30;;;;;;4331834;33;43339;-83
2022/03/07 00:54:04;;;;;;;;;;;5.50;88.80;;;;;;4318574;33;44004;-83
2022/03/07 00:56:31;;;;;;;;;;;5.50;88.90;;;;;;4318057;33;43323;-83
2022/03/07 00:58:58;;;;;;;;;;;5.50;89.50;;;;;;4330988;33;45871;-83
2022/03/07 01:01:25;;;;;;;;;;;5.50;89.20;;;;;;4317992;33;43529;-83
2022/03/07 01:03:52;;;;;;;;;;;5.40;88.90;;;;;;4318448;33;44097;-83
2022/03/07 01:06:20;;;;;;;;;;;5.40;89.10;;;;;;4318207;33;43846;-83
2022/03/07 01:08:47;;;;;;;;;;;5.40;89.20;;;;;;4318114;33;44108;-83
2022/03/07 01:11:15;;;;;;;;;;;5.40;89.70;;;;;;4317923;33;43883;-82
2022/03/07 01:13:42;;;;;;;;;;;5.40;89.20;;;;;;4331284;33;42706;-83
2022/03/07 01:16:09;;;;;;;;;;;5.40;89.30;;;;;;4317658;33;43306;-83
2022/03/07 01:18:37;;;;;;;;;;;5.40;89.20;;;;;;4317640;33;42952;-83
2022/03/07 01:21:04;;;;;;;;;;;5.30;89.10;;;;;;4318125;33;45517;-83
2022/03/07 01:23:31;;;;;;;;;;;5.30;89.30;;;;;;4318131;33;43596;-83
2022/03/07 01:25:58;;;;;;;;;;;5.30;89.70;;;;;;4331174;33;43021;-83
2022/03/07 01:28:25;;;;;;;;;;;5.30;89.70;;;;;;4317837;33;44935;-83
2022/03/07 01:30:52;;;;;;;;;;;5.30;89.10;;;;;;4317410;33;44162;-83
2022/03/07 01:33:21;;;;;;;;;;;5.20;89.40;;;;;;4317604;33;43046;-83
2022/03/07 01:35:48;;;;;;;;;;;5.20;89.50;;;;;;4317679;33;43197;-83
2022/03/07 01:38:15;;;;;;;;;;;5.20;89.60;;;;;;4330975;33;45831;-82
2022/03/07 01:40:44;;;;;;;;;;;5.20;90.00;;;;;;4317720;33;44297;-83
2022/03/07 01:43:11;;;;;;;;;;;5.20;89.60;;;;;;4317673;33;44759;-81
2022/03/07 01:45:41;;;;;;;;;;;5.20;89.50;;;;;;4317345;33;44971;-83
2022/03/07 01:48:09;;;;;;;;;;;5.20;89.40;;;;;;4318146;33;43292;-84
2022/03/07 01:50:36;;;;;;;;;;;5.20;89.60;;;;;;4317230;33;41937;-83
2022/03/07 01:53:03;;;;;;;;;;;5.20;89.20;;;;;;4317202;33;43053;-83
2022/03/07 01:55:30;;;;;;;;;;;5.20;88.40;;;;;;4317546;33;45556;-84
2022/03/07 01:57:57;;;;;;;;;;;5.20;88.60;;;;;;4317350;33;44216;-83
2022/03/07 02:00:26;;;;;;;;;;;5.10;89.30;;;;;;4330290;33;44129;-83
2022/03/07 02:02:54;;;;;;;;;;;5.20;89.60;;;;;;4317087;33;45519;-83
2022/03/07 02:05:21;;;;;;;;;;;5.10;89.50;;;;;;4317421;33;42541;-83
2022/03/07 02:07:48;;;;;;;;;;;5.20;90.00;;;;;;4317502;33;44192;-83
2022/03/07 02:10:15;;;;;;;;;;;5.20;90.00;;;;;;4330456;33;45682;-84
2022/03/07 02:12:42;;;;;;;;;;;5.20;89.90;;;;;;4317579;33;43862;-84
2022/03/07 02:15:09;;;;;;;;;;;5.20;89.90;;;;;;4317071;33;44218;-83
2022/03/07 02:17:37;;;;;;;;;;;5.20;89.70;;;;;;4317515;33;43128;-83
2022/03/07 02:20:05;;;;;;;;;;;5.20;89.30;;;;;;4317215;33;44610;-84
2022/03/07 02:22:35;;;;;;;;;;;5.20;89.70;;;;;;4317711;33;43463;-83
2022/03/07 02:25:02;;;;;;;;;;;5.20;89.60;;;;;;4317307;33;42291;-84
2022/03/07 02:27:31;;;;;;;;;;;5.20;88.80;;;;;;4316805;33;44331;-83
2022/03/07 02:29:59;;;;;;;;;;;5.10;88.90;;;;;;4317020;33;44047;-84
2022/03/07 02:32:26;;;;;;;;;;;5.10;89.00;;;;;;4317186;33;43454;-84
2022/03/07 02:34:53;;;;;;;;;;;5.10;89.30;;;;;;4317330;33;45745;-83
2022/03/07 02:37:20;;;;;;;;;;;5.00;88.70;;;;;;4330755;33;43243;-84
2022/03/07 02:39:48;;;;;;;;;;;5.00;88.50;;;;;;4317355;33;43323;-84
2022/03/07 02:42:35;;;;;;;;;;;4.90;88.20;;;;;;4319569;33;45339;-84
2022/03/07 02:45:02;;;;;;;;;;;4.90;88.40;;;;;;4330464;33;43374;-83
2022/03/07 02:47:29;;;;;;;;;;;4.90;88.30;;;;;;4317287;33;44226;-84
2022/03/07 02:49:56;;;;;;;;;;;4.90;88.40;;;;;;4317043;33;44955;-84
2022/03/07 02:52:23;;;;;;;;;;;4.80;88.60;;;;;;4317297;33;42400;-84
2022/03/07 02:54:50;;;;;;;;;;;4.80;88.50;;;;;;4317250;33;44594;-84
2022/03/07 02:57:17;;;;;;;;;;;4.70;88.70;;;;;;4317345;33;43359;-83
2022/03/07 02:59:46;;;;;;;;;;;4.70;88.70;;;;;;4329692;33;44595;-84
2022/03/07 03:02:13;;;;;;;;;;;4.70;89.10;;;;;;4329753;33;43423;-84
2022/03/07 03:04:40;;;;;;;;;;;4.70;89.70;;;;;;4330297;33;43237;-84
2022/03/07 03:07:07;;;;;;;;;;;4.60;89.20;;;;;;4329952;33;44243;-84
2022/03/07 03:09:34;;;;;;;;;;;4.70;89.00;;;;;;4319663;33;43833;-84
2022/03/07 03:12:02;;;;;;;;;;;4.60;89.10;;;;;;4319753;33;42558;-84
2022/03/07 03:14:29;;;;;;;;;;;4.70;89.70;;;;;;4319782;33;44783;-84
2022/03/07 03:16:56;;;;;;;;;;;4.60;89.60;;;;;;4319860;33;43018;-84
2022/03/07 03:19:23;;;;;;;;;;;4.70;89.60;;;;;;4319226;33;45734;-84
2022/03/07 03:21:52;;;;;;;;;;;4.60;89.60;;;;;;4332446;33;44134;-84
2022/03/07 03:24:19;;;;;;;;;;;4.60;90.10;;;;;;4319177;33;44879;-84
2022/03/07 03:26:46;;;;;;;;;;;4.60;90.10;;;;;;4319192;33;43764;-84
2022/03/07 03:29:13;;;;;;;;;;;4.60;90.10;;;;;;4332460;33;43356;-84
2022/03/07 03:31:40;;;;;;;;;;;4.60;90.20;;;;;;4319445;33;44646;-84
2022/03/07 03:34:07;;;;;;;;;;;4.60;90.30;;;;;;4319594;33;44092;-84
2022/03/07 03:36:34;;;;;;;;;;;4.60;90.00;;;;;;4319231;33;42762;-84
2022/03/07 03:39:02;;;;;;;;;;;4.60;89.90;;;;;;4319283;33;44020;-84
2022/03/07 03:41:29;;;;;;;;;;;4.60;90.20;;;;;;4319200;33;44898;-84
2022/03/07 03:43:58;;;;;;;;;;;4.60;90.30;;;;;;4332193;33;43054;-84
2022/03/07 03:46:25;;;;;;;;;;;4.60;90.20;;;;;;4319337;33;43892;-84
2022/03/07 03:48:52;;;;;;;;;;;4.50;90.10;;;;;;4318833;33;44782;-84
2022/03/07 03:51:19;;;;;;;;;;;4.50;90.40;;;;;;4319010;33;44709;-84
2022/03/07 03:53:46;;;;;;;;;;;4.50;90.50;;;;;;4332151;33;42878;-84
2022/03/07 03:56:14;;;;;;;;;;;4.60;90.60;;;;;;4319848;33;19997;-83
2022/03/07 03:58:41;;;;;;;;;;;4.50;90.30;;;;;;4319110;33;44021;-84
2022/03/07 04:01:08;;;;;;;;;;;4.50;90.10;;;;;;4332323;33;43519;-84
2022/03/07 04:03:35;;;;;;;;;;;4.40;90.00;;;;;;4304341;33;44081;-84
2022/03/07 04:06:06;;;;;;;;;;;4.40;90.00;;;;;;4304313;33;45765;-84
2022/03/07 04:08:39;;;;;;;;;;;4.40;90.20;;;;;;4304107;33;43092;-84
2022/03/07 04:11:06;;;;;;;;;;;4.30;90.30;;;;;;4304604;33;44783;-84
2022/03/07 04:13:33;;;;;;;;;;;4.40;90.40;;;;;;4303945;33;44837;-84
2022/03/07 04:16:00;;;;;;;;;;;4.30;90.20;;;;;;4317299;33;44196;-84
2022/03/07 04:18:27;;;;;;;;;;;4.30;90.40;;;;;;4317052;33;43097;-84
2022/03/07 04:20:54;;;;;;;;;;;4.30;90.30;;;;;;4303581;33;44222;-84
2022/03/07 04:23:22;;;;;;;;;;;4.30;90.20;;;;;;4304320;33;45072;-83
2022/03/07 04:25:49;;;;;;;;;;;4.30;90.30;;;;;;4304289;33;42946;-84
2022/03/07 04:28:17;;;;;;;;;;;4.20;90.40;;;;;;4304354;33;44179;-84
2022/03/07 04:30:44;;;;;;;;;;;4.20;90.30;;;;;;4303875;33;43924;-84
2022/03/07 04:33:11;;;;;;;;;;;4.20;90.40;;;;;;4304073;33;43213;-84
2022/03/07 04:35:39;;;;;;;;;;;4.20;90.40;;;;;;4316860;33;44225;-84
2022/03/07 04:38:06;;;;;;;;;;;4.20;90.40;;;;;;4317166;33;43335;-84
2022/03/07 04:40:33;;;;;;;;;;;4.10;90.50;;;;;;4303676;33;42848;-84
2022/03/07 04:43:01;;;;;;;;;;;4.10;90.70;;;;;;4317230;33;43306;-84
2022/03/07 04:45:28;;;;;;;;;;;4.10;90.50;;;;;;4304172;33;43204;-84
2022/03/07 04:47:55;;;;;;;;;;;4.10;90.50;;;;;;4316815;33;44918;-84
2022/03/07 04:50:22;;;;;;;;;;;4.10;90.60;;;;;;4303688;33;43509;-84
2022/03/07 04:52:49;;;;;;;;;;;4.10;90.60;;;;;;4303702;33;44604;-84
2022/03/07 04:55:16;;;;;;;;;;;4.10;90.60;;;;;;4303818;33;45732;-84
2022/03/07 04:57:44;;;;;;;;;;;4.00;90.60;;;;;;4303893;33;43943;-84
2022/03/07 05:00:11;;;;;;;;;;;4.10;90.70;;;;;;4303355;33;44339;-83
2022/03/07 05:02:38;;;;;;;;;;;4.10;90.80;;;;;;4325659;33;44800;-84
2022/03/07 05:05:06;;;;;;;;;;;4.10;90.80;;;;;;4331012;33;46098;-84
2022/03/07 05:07:33;;;;;;;;;;;4.10;90.60;;;;;;4317877;33;43217;-84
2022/03/07 05:10:00;;;;;;;;;;;4.10;90.50;;;;;;4317730;33;42850;-84
2022/03/07 05:12:27;;;;;;;;;;;4.10;90.70;;;;;;4317650;33;43281;-84
2022/03/07 05:14:55;;;;;;;;;;;4.10;90.60;;;;;;4331351;33;44776;-84
2022/03/07 05:17:22;;;;;;;;;;;4.10;90.60;;;;;;4317694;33;42759;-84
2022/03/07 05:19:49;;;;;;;;;;;4.00;90.70;;;;;;4331107;33;44104;-84
2022/03/07 05:22:17;;;;;;;;;;;4.00;90.50;;;;;;4318106;33;45722;-84
2022/03/07 05:24:44;;;;;;;;;;;4.00;90.80;;;;;;4317999;33;43192;-84
2022/03/07 05:27:11;;;;;;;;;;;4.10;90.70;;;;;;4318000;33;44383;-85
2022/03/07 05:29:38;;;;;;;;;;;4.00;90.70;;;;;;4317914;33;42423;-85
2022/03/07 05:32:05;;;;;;;;;;;4.00;90.70;;;;;;4317458;33;43120;-83
2022/03/07 05:34:32;;;;;;;;;;;4.00;90.50;;;;;;4317754;33;43968;-83
2022/03/07 05:37:00;;;;;;;;;;;3.90;90.60;;;;;;4317882;33;44221;-83
2022/03/07 05:39:27;;;;;;;;;;;3.90;90.10;;;;;;4317843;33;44150;-84
2022/03/07 05:41:54;;;;;;;;;;;3.90;90.60;;;;;;4317587;33;43899;-84
2022/03/07 05:44:21;;;;;;;;;;;3.90;90.10;;;;;;4317574;33;42776;-84
2022/03/07 05:46:48;;;;;;;;;;;3.80;90.40;;;;;;4317229;33;43895;-84
2022/03/07 05:49:15;;;;;;;;;;;3.80;90.20;;;;;;4317480;33;45032;-84
2022/03/07 05:51:44;;;;;;;;;;;3.80;90.10;;;;;;4317199;33;42825;-84
2022/03/07 05:54:11;;;;;;;;;;;3.80;90.10;;;;;;4317846;33;43620;-84
2022/03/07 05:56:38;;;;;;;;;;;3.80;90.20;;;;;;4317244;33;42887;-84
2022/03/07 05:59:05;;;;;;;;;;;3.70;90.10;;;;;;4330289;33;43081;-84
2022/03/07 06:01:32;;;;;;;;;;;3.70;90.00;;;;;;4330344;33;42862;-84
2022/03/07 06:04:00;;;;;;;;;;;3.70;90.10;;;;;;4330178;33;44944;-83
2022/03/07 06:06:27;;;;;;;;;;;3.70;90.20;;;;;;4317582;33;43847;-84
2022/03/07 06:08:54;;;;;;;;;;;3.70;90.00;;;;;;4317116;33;43780;-84
2022/03/07 06:11:21;;;;;;;;;;;3.70;90.00;;;;;;4330779;33;43486;-84
2022/03/07 06:13:48;;;;;;;;;;;3.70;89.00;;;;;;4317147;33;43381;-84
2022/03/07 06:16:15;;;;;;;;;;;3.60;89.00;;;;;;4317279;33;44649;-85
2022/03/07 06:18:42;;;;;;;;;;;3.60;89.50;;;;;;4317465;33;44202;-84
2022/03/07 06:21:09;;;;;;;;;;;3.60;89.70;;;;;;4330474;33;44461;-84
2022/03/07 06:23:37;;;;;;;;;;;3.60;89.30;;;;;;4330163;33;42251;-84
2022/03/07 06:26:04;;;;;;;;;;;3.60;89.60;;;;;;4317095;33;44366;-83
2022/03/07 06:28:32;;;;;;;;;;;3.60;88.60;;;;;;4317410;33;44790;-83
2022/03/07 06:30:59;;;;;;;;;;;3.50;88.90;;;;;;4317216;33;43965;-84
2022/03/07 06:33:26;;;;;;;;;;;3.50;88.80;;;;;;4317316;33;43814;-84
2022/03/07 06:35:53;;;;;;;;;;;3.50;88.90;;;;;;4316771;33;42662;-84
2022/03/07 06:38:21;;;;;;;;;;;3.50;88.60;;;;;;4330371;33;43419;-84
2022/03/07 06:40:48;;;;;;;;;;;3.50;88.90;;;;;;4317581;33;43298;-84
2022/03/07 06:43:15;;;;;;;;;;;3.50;88.90;;;;;;4318794;33;44712;-84
2022/03/07 06:45:42;;;;;;;;;;;3.40;88.80;;;;;;4320138;33;43174;-83
2022/03/07 06:48:09;;;;;;;;;;;3.40;89.00;;;;;;4333356;33;44961;-83
2022/03/07 06:50:37;;;;;;;;;;;3.40;89.70;;;;;;4319645;33;45135;-84
2022/03/07 06:53:04;;;;;;;;;;;3.40;89.10;;;;;;4319832;33;43203;-84
2022/03/07 06:55:31;;;;;;;;;;;3.30;89.10;;;;;;4319741;33;43352;-84
2022/03/07 06:57:58;;;;;;;;;;;3.30;89.40;;;;;;4320160;33;44346;-84
2022/03/07 07:00:25;;;;;;;;;;;3.40;90.10;;;;;;4332972;33;45557;-84
2022/03/07 07:02:52;;;;;;;;;;;3.40;90.10;;;;;;4332637;33;43870;-84
2022/03/07 07:05:20;;;;;;;;;;;3.40;89.50;;;;;;4319687;33;43902;-85
2022/03/07 07:07:47;;;;;;;;;;;3.40;90.10;;;;;;4332714;33;44286;-84
2022/03/07 07:10:20;;;;;;;;;;;3.40;89.50;;;;;;4319826;33;43782;-84
2022/03/07 07:12:49;;;;;;;;;;;3.40;89.50;;;;;;4319894;33;45877;-84
2022/03/07 07:15:16;;;;;;;;;;;3.40;89.60;;;;;;4333014;33;44948;-84
2022/03/07 07:17:43;;;;;;;;;;;3.40;89.60;;;;;;4319713;33;43942;-85
2022/03/07 07:20:11;;;;;;;;;;;3.40;89.80;;;;;;4319354;33;43157;-84
2022/03/07 07:22:38;;;;;;;;;;;3.40;90.10;;;;;;4319280;33;42633;-84
2022/03/07 07:25:06;;;;;;;;;;;3.50;90.00;;;;;;4319698;33;45679;-84
2022/03/07 07:27:33;;;;;;;;;;;3.40;90.00;;;;;;4319654;33;45280;-85
2022/03/07 07:30:01;;;;;;;;;;;3.50;89.40;;;;;;4319738;33;43522;-85
2022/03/07 07:32:28;;;;;;;;;;;3.50;89.70;;;;;;4319582;33;44293;-84
2022/03/07 07:34:55;;;;;;;;;;;3.40;90.10;;;;;;4332455;33;45654;-84
2022/03/07 07:37:22;;;;;;;;;;;3.50;90.00;;;;;;4319552;33;44211;-84
2022/03/07 07:39:49;;;;;;;;;;;3.40;90.10;;;;;;4319533;33;44245;-84
2022/03/07 07:42:17;;;;;;;;;;;3.50;90.50;;;;;;4332194;33;42795;-83
2022/03/07 07:44:44;;;;;;;;;;;3.50;90.10;;;;;;4319364;33;43316;-84
2022/03/07 07:47:11;;;;;;;;;;;3.50;90.30;;;;;;4318920;33;44332;-84
2022/03/07 07:49:38;;;;;;;;;;;3.50;90.30;;;;;;4318986;33;44914;-84
2022/03/07 07:52:05;;;;;;;;;;;3.60;90.30;;;;;;4318967;33;44329;-85
2022/03/07 07:54:32;;;;;;;;;;;3.60;90.40;;;;;;4319179;33;43478;-84
2022/03/07 07:57:02;;;;;;;;;;;3.60;90.40;;;;;;4319217;33;45777;-84
2022/03/07 07:59:29;;;;;;;;;;;3.70;90.20;;;;;;4319216;33;45962;-84
2022/03/07 08:01:56;;;;;;;;;;;3.70;90.20;;;;;;4318612;33;43148;-84
2022/03/07 08:04:23;;;;;;;;;;;3.80;90.10;;;;;;4318815;33;45075;-84
2022/03/07 08:06:50;;;;;;;;;;;3.70;90.00;;;;;;4318631;33;45090;-83
2022/03/07 08:09:17;;;;;;;;;;;3.70;89.50;;;;;;4332187;33;42737;-84
2022/03/07 08:11:44;;;;;;;;;;;3.70;90.00;;;;;;4332218;33;43894;-84
2022/03/07 08:14:12;;;;;;;;;;;3.70;89.00;;;;;;4319034;33;43152;-84
2022/03/07 08:16:39;;;;;;;;;;;3.70;89.70;;;;;;4332019;33;43893;-84
2022/03/07 08:19:06;;;;;;;;;;;3.70;90.00;;;;;;4318755;33;43678;-84
2022/03/07 08:21:33;;;;;;;;;;;3.80;89.80;;;;;;4318500;33;44035;-84
2022/03/07 08:24:01;;;;;;;;;;;3.80;89.70;;;;;;4319009;33;43946;-84
2022/03/07 08:26:28;;;;;;;;;;;3.80;89.50;;;;;;4318326;33;45010;-84
2022/03/07 08:28:55;;;;;;;;;;;3.80;90.00;;;;;;4318341;33;45674;-83
2022/03/07 08:31:22;;;;;;;;;;;3.80;89.50;;;;;;4318377;33;45921;-83
2022/03/07 08:33:50;;;;;;;;;;;3.80;89.20;;;;;;4318414;33;43263;-82
2022/03/07 08:36:17;;;;;;;;;;;3.80;90.20;;;;;;4331543;33;43675;-81
2022/03/07 08:38:44;;;;;;;;;;;3.80;89.70;;;;;;4318603;33;45760;-83
2022/03/07 08:41:11;;;;;;;;;;;3.80;89.80;;;;;;4318704;33;43341;-83
2022/03/07 08:43:39;;;;;;;;;;;3.80;89.70;;;;;;4318501;33;44850;-83
2022/03/07 08:46:11;;;;;;;;;;;3.90;89.50;;;;;;4331905;33;44070;-83
2022/03/07 08:48:38;;;;;;;;;;;3.90;89.10;;;;;;4318101;33;43682;-83
2022/03/07 08:51:06;;;;;;;;;;;3.90;89.40;;;;;;4318024;33;44287;-82
2022/03/07 08:53:33;;;;;;;;;;;3.90;88.80;;;;;;4318458;33;43259;-83
2022/03/07 08:56:00;;;;;;;;;;;3.90;89.20;;;;;;4317922;33;43039;-83
2022/03/07 08:58:47;;;;;;;;;;;3.90;89.20;;;;;;4331611;33;45307;-83
2022/03/07 09:01:16;;;;;;;;;;;3.90;88.60;;;;;;4330926;33;42092;-82
2022/03/07 09:03:43;;;;;;;;;;;3.90;88.40;;;;;;4331400;33;44221;-83
2022/03/07 09:06:11;;;;;;;;;;;3.90;88.50;;;;;;4317344;33;44683;-83
2022/03/07 09:08:38;;;;;;;;;;;3.90;88.10;;;;;;4318361;33;42794;-83
2022/03/07 09:11:05;;;;;;;;;;;3.90;88.70;;;;;;4317807;33;45309;-82
2022/03/07 09:13:32;;;;;;;;;;;3.90;89.00;;;;;;4331059;33;43863;-82
2022/03/07 09:15:59;;;;;;;;;;;3.90;88.20;;;;;;4317992;33;43865;-81
2022/03/07 09:18:28;;;;;;;;;;;3.90;88.20;;;;;;4317600;33;43662;-82
2022/03/07 09:20:56;;;;;;;;;;;3.90;88.30;;;;;;4318112;33;43051;-82
2022/03/07 09:23:23;;;;;;;;;;;3.90;88.20;;;;;;4330889;33;44106;-82
2022/03/07 09:25:51;;;;;;;;;;;3.90;87.90;;;;;;4317942;33;43540;-82
2022/03/07 09:28:18;;;;;;;;;;;3.90;87.40;;;;;;4330912;33;43270;-81
2022/03/07 09:30:45;;;;;;;;;;;3.90;87.60;;;;;;4317834;33;43197;-82
2022/03/07 09:33:12;;;;;;;;;;;3.90;87.40;;;;;;4331096;33;43771;-82
2022/03/07 09:35:39;;;;;;;;;;;3.90;87.60;;;;;;4317428;33;44230;-82
2022/03/07 09:38:06;;;;;;;;;;;3.90;87.40;;;;;;4330663;33;44727;-82
2022/03/07 09:40:34;;;;;;;;;;;3.90;87.60;;;;;;4317553;33;43322;-82
2022/03/07 09:43:01;;;;;;;;;;;3.90;87.60;;;;;;4317717;33;45558;-82
2022/03/07 09:45:29;;;;;;;;;;;3.90;87.50;;;;;;4317343;33;43506;-81
2022/03/07 09:47:57;;;;;;;;;;;4.00;87.60;;;;;;4331014;33;44182;-82
2022/03/07 09:50:24;;;;;;;;;;;4.00;88.10;;;;;;4317764;33;43502;-82
2022/03/07 09:52:54;;;;;;;;;;;3.90;87.90;;;;;;4317835;33;43204;-82
2022/03/07 09:55:22;;;;;;;;;;;4.00;87.70;;;;;;4317331;33;44380;-81
2022/03/07 09:57:49;;;;;;;;;;;4.00;87.80;;;;;;4317569;33;43532;-82
2022/03/07 10:00:17;;;;;;;;;;;4.00;87.90;;;;;;4317253;33;42740;-82
2022/03/07 10:02:53;;;;;;;;;;;4.00;87.90;;;;;;4316934;33;43423;-82
2022/03/07 10:05:21;;;;;;;;;;;4.00;88.10;;;;;;4317302;33;43514;-81
2022/03/07 10:07:48;;;;;;;;;;;4.00;86.90;;;;;;4317737;33;43604;-81
2022/03/07 10:10:15;;;;;;;;;;;4.10;87.60;;;;;;4317442;33;43790;-81
2022/03/07 10:12:50;;;;;;;;;;;4.10;87.90;;;;;;4317053;33;42954;-81
2022/03/07 10:15:19;;;;;;;;;;;4.10;87.30;;;;;;4317102;33;43850;-82
2022/03/07 10:17:47;;;;;;;;;;;4.10;87.30;;;;;;4317153;33;43381;-81
2022/03/07 10:20:18;;;;;;;;;;;4.00;87.70;;;;;;4331079;33;44186;-81
2022/03/07 10:22:47;;;;;;;;;;;4.10;87.60;;;;;;4317370;33;42887;-81
2022/03/07 10:25:15;;;;;;;;;;;4.10;87.80;;;;;;4317404;33;43127;-81
2022/03/07 10:27:44;;;;;;;;;;;4.10;86.90;;;;;;4317843;33;19998;-81
2022/03/07 10:30:29;;;;;;;;;;;4.10;87.50;;;;;;4316927;33;42685;-81
2022/03/07 10:32:57;;;;;;;;;;;4.10;87.50;;;;;;4330450;33;46310;-81
2022/03/07 10:35:30;;;;;;;;;;;4.10;87.20;;;;;;4317305;33;44167;-81
2022/03/07 10:37:59;;;;;;;;;;;4.10;87.40;;;;;;4330482;33;45847;-80
2022/03/07 10:40:27;;;;;;;;;;;4.10;87.40;;;;;;4316770;33;42741;-81
2022/03/07 10:42:54;;;;;;;;;;;4.20;87.90;;;;;;4316930;33;42818;-81
2022/03/07 10:45:22;;;;;;;;;;;4.20;87.40;;;;;;4330128;33;43673;-82
2022/03/07 10:47:53;;;;;;;;;;;4.20;87.70;;;;;;4330350;33;42995;-81
2022/03/07 10:50:21;;;;;;;;;;;4.20;88.00;;;;;;4316837;33;43354;-80
2022/03/07 10:52:50;;;;;;;;;;;4.20;87.60;;;;;;4316715;33;43210;-81
2022/03/07 10:55:22;;;;;;;;;;;4.30;87.40;;;;;;4316815;33;44177;-81
2022/03/07 10:57:49;;;;;;;;;;;4.30;88.00;;;;;;4330892;33;20002;-80
2022/03/07 11:00:17;;;;;;;;;;;4.30;87.20;;;;;;4316978;33;44746;-81
2022/03/07 11:02:45;;;;;;;;;;;4.30;87.40;;;;;;4316582;33;43618;-81
2022/03/07 11:05:13;;;;;;;;;;;4.30;87.50;;;;;;4329858;33;42798;-81
2022/03/07 11:07:41;;;;;;;;;;;4.40;87.60;;;;;;4330274;33;43397;-81
2022/03/07 11:10:10;;;;;;;;;;;4.40;87.10;;;;;;4316975;33;44188;-81
2022/03/07 11:12:37;;;;;;;;;;;4.40;87.60;;;;;;4317143;33;44022;-81
2022/03/07 11:15:08;;;;;;;;;;;4.40;87.10;;;;;;4316909;33;43104;-81
2022/03/07 11:17:37;;;;;;;;;;;4.40;86.90;;;;;;4330218;33;44385;-81
2022/03/07 11:20:05;;;;;;;;;;;4.40;87.20;;;;;;4330291;33;43089;-81
2022/03/07 11:22:32;;;;;;;;;;;4.50;87.10;;;;;;4329766;33;43339;-81
2022/03/07 11:25:00;;;;;;;;;;;4.50;87.60;;;;;;4329851;33;44011;-81
2022/03/07 11:27:30;;;;;;;;;;;4.50;87.70;;;;;;4316580;33;44087;-81
2022/03/07 11:29:57;;;;;;;;;;;4.60;87.30;;;;;;4319161;33;44785;-80
2022/03/07 11:32:25;;;;;;;;;;;4.60;87.10;;;;;;4319580;33;46040;-81
2022/03/07 11:34:56;;;;;;;;;;;4.60;86.90;;;;;;4332400;33;43224;-81
2022/03/07 11:37:27;;;;;;;;;;;4.60;87.30;;;;;;4319724;33;43803;-81
2022/03/07 11:39:58;;;;;;;;;;;4.70;88.00;;;;;;4319317;33;42781;-80
2022/03/07 11:42:36;;;;;;;;;;;4.70;87.90;;;;;;4319773;33;43857;-81
2022/03/07 11:45:18;;;;;;;;;;;4.70;87.10;;;;;;4332679;33;45040;-81
2022/03/07 11:47:46;;;;;;;;;;;4.70;86.90;;;;;;4332745;33;43538;-81
2022/03/07 11:50:23;;;;;;;;;;;4.80;86.40;;;;;;4319137;33;42978;-80
2022/03/07 11:53:01;;;;;;;;;;;4.80;87.40;;;;;;4319212;33;44931;-81
2022/03/07 11:55:28;;;;;;;;;;;4.80;87.10;;;;;;4319240;33;43453;-81
2022/03/07 11:57:59;;;;;;;;;;;4.80;87.30;;;;;;4318895;33;43373;-82
2022/03/07 12:00:32;;;;;;;;;;;4.90;86.60;;;;;;4319359;33;45282;-81
2022/03/07 12:03:08;;;;;;;;;;;4.90;86.40;;;;;;4316553;33;43453;-81
2022/03/07 12:05:35;;;;;;;;;;;4.90;86.60;;;;;;4317357;33;44231;-81
2022/03/07 12:08:08;;;;;;;;;;;5.00;86.80;;;;;;4316158;33;43382;-81
2022/03/07 12:10:36;;;;;;;;;;;5.00;86.80;;;;;;4316654;33;45106;-79
2022/03/07 12:13:08;;;;;;;;;;;5.00;86.40;;;;;;4316108;33;43257;-81
2022/03/07 12:15:43;;;;;;;;;;;5.00;86.80;;;;;;4316685;33;44802;-81
2022/03/07 12:18:10;;;;;;;;;;;5.10;86.50;;;;;;4316455;33;45149;-81
2022/03/07 12:20:47;;;;;;;;;;;5.10;86.90;;;;;;4317497;33;43181;-82
2022/03/07 12:23:15;;;;;;;;;;;5.20;86.40;;;;;;4316482;33;43016;-81
2022/03/07 12:25:42;;;;;;;;;;;5.20;86.60;;;;;;4316659;33;45782;-81
2022/03/07 12:28:10;;;;;;;;;;;5.20;86.90;;;;;;4317456;33;44582;-81
2022/03/07 12:30:37;;;;;;;;;;;5.20;87.10;;;;;;4316841;33;20045;-81
2022/03/07 12:33:08;;;;;;;;;;;5.30;86.60;;;;;;4316197;33;44179;-81
2022/03/07 12:35:36;;;;;;;;;;;5.30;86.10;;;;;;4317322;33;45441;-81
2022/03/07 12:38:07;;;;;;;;;;;5.30;85.30;;;;;;4315896;33;44162;-81
2022/03/07 12:40:35;;;;;;;;;;;5.30;85.10;;;;;;4315312;33;43627;-81
2022/03/07 12:43:08;;;;;;;;;;;5.40;85.50;;;;;;4316079;33;43337;-81
2022/03/07 12:45:43;;;;;;;;;;;5.40;85.50;;;;;;4315650;33;44894;-81
2022/03/07 12:48:11;;;;;;;;;;;5.40;85.60;;;;;;4317332;33;45185;-81
2022/03/07 12:50:38;;;;;;;;;;;5.50;85.40;;;;;;4315590;33;43494;-81
2022/03/07 12:53:09;;;;;;;;;;;5.50;85.30;;;;;;4315633;33;46043;-82
2022/03/07 12:55:36;;;;;;;;;;;5.50;85.40;;;;;;4316002;33;43055;-81
2022/03/07 12:58:04;;;;;;;;;;;5.50;85.60;;;;;;4315848;33;44764;-81
2022/03/07 13:00:32;;;;;;;;;;;5.60;85.20;;;;;;4316453;33;44399;-81
2022/03/07 13:03:02;;;;;;;;;;;5.60;85.70;;;;;;4315332;33;43271;-81
2022/03/07 13:05:29;;;;;;;;;;;5.60;85.30;;;;;;4315980;33;42400;-81
2022/03/07 13:07:58;;;;;;;;;;;5.70;85.50;;;;;;4316350;33;43026;-81
2022/03/07 13:10:25;;;;;;;;;;;5.70;86.50;;;;;;4315760;33;45829;-81
2022/03/07 13:12:53;;;;;;;;;;;5.80;86.40;;;;;;4315498;33;43454;-82
2022/03/07 13:15:21;;;;;;;;;;;5.80;86.50;;;;;;4315210;33;43782;-82
2022/03/07 13:18:01;;;;;;;;;;;5.80;86.30;;;;;;4315806;33;44194;-82
2022/03/07 13:20:28;;;;;;;;;;;5.80;85.00;;;;;;4315329;33;42696;-80
2022/03/07 13:23:02;;;;;;;;;;;5.90;85.30;;;;;;4316218;33;42977;-80
2022/03/07 13:25:39;;;;;;;;;;;5.90;86.00;;;;;;4315545;33;45806;-81
2022/03/07 13:28:07;;;;;;;;;;;6.00;86.60;;;;;;4315118;33;43038;-81
2022/03/07 13:30:34;;;;;;;;;;;6.00;85.50;;;;;;4315063;33;42708;-80
2022/03/07 13:33:03;;;;;;;;;;;6.00;85.30;;;;;;4315045;33;43601;-81
2022/03/07 13:35:50;;;;;;;;;;;6.00;84.80;;;;;;4316614;33;43356;-81
2022/03/07 13:38:21;;;;;;;;;;;6.10;84.10;;;;;;4314910;33;42657;-81
2022/03/07 13:40:48;;;;;;;;;;;6.10;84.40;;;;;;4315374;33;44187;-81
2022/03/07 13:43:23;;;;;;;;;;;6.10;85.00;;;;;;4316089;33;42662;-80
2022/03/07 13:45:53;;;;;;;;;;;6.10;85.70;;;;;;4316466;33;45720;-81
2022/03/07 13:48:22;;;;;;;;;;;6.20;84.70;;;;;;4315189;33;44611;-81
2022/03/07 13:50:52;;;;;;;;;;;6.20;84.70;;;;;;4314830;33;44026;-81
2022/03/07 13:53:23;;;;;;;;;;;6.20;84.10;;;;;;4314828;33;44132;-81
2022/03/07 13:55:52;;;;;;;;;;;6.20;83.70;;;;;;4314627;33;44381;-81
2022/03/07 13:58:24;;;;;;;;;;;6.30;83.80;;;;;;4315193;33;44971;-81
2022/03/07 14:01:08;;;;;;;;;;;6.30;86.10;;;;;;4315337;33;44201;-81
2022/03/07 14:03:55;;;;;;;;;;;6.30;86.50;;;;;;4316178;33;45271;-80
2022/03/07 14:06:24;;;;;;;;;;;6.40;86.10;;;;;;4314869;33;43311;-81
2022/03/07 14:08:51;;;;;;;;;;;6.40;86.00;;;;;;4315811;33;43280;-81
2022/03/07 14:11:18;;;;;;;;;;;6.50;84.40;;;;;;4315030;33;43705;-81
2022/03/07 14:13:47;;;;;;;;;;;6.50;84.50;;;;;;4315878;33;44079;-81
2022/03/07 14:16:15;;;;;;;;;;;6.50;84.40;;;;;;4315166;33;44167;-82
2022/03/07 14:18:42;;;;;;;;;;;6.60;83.60;;;;;;4314623;33;45996;-82
2022/03/07 14:21:10;;;;;;;;;;;6.60;83.70;;;;;;4314945;33;43703;-82
2022/03/07 14:24:01;;;;;;;;;;;6.60;82.90;;;;;;4315023;33;43913;-82
2022/03/07 14:26:28;;;;;;;;;;;6.60;82.90;;;;;;4314603;33;44181;-81
2022/03/07 14:29:03;;;;;;;;;;;6.70;84.00;;;;;;4314942;33;43477;-82
2022/03/07 14:31:35;;;;;;;;;;;6.70;82.90;;;;;;4315734;33;20371;-82
2022/03/07 14:34:04;;;;;;;;;;;6.70;83.20;;;;;;4315508;33;43884;-81
2022/03/07 14:36:31;;;;;;;;;;;6.70;83.40;;;;;;4314314;33;44406;-81